5Km

5 Km Trail de la Saint Valentin du 10/02/18 (Reelle 5,4)
Rang Dossard Nom Prénom Temps Cat Rang Cat Ecart Ecart Cat Club Vitesse Km/h Temps au Km
1 5045 LEBRIEZ gregory 00:27:55 V1M 1 00:00:00 00:00:00 11,606 05:10
2 5150 DEHONDT JEAN-BAPTISTE 00:28:28 CAM 1 00:00:33 00:00:00 - 11,382 05:16
3 5002 MEURET ROLIN Louna Capucine 00:28:39 DUF 1 00:00:44 00:00:00 COT 11,309 05:18
4 5066 DELANNOY BOURDON Liliane Vincent 00:29:15 DUX 1 00:01:20 00:00:00 0 11,077 05:25
5 5008 BOULOIS BOULOIS Sylvain Jovanny 00:29:43 DUM 1 00:01:48 00:00:00 0 10,903 05:30
6 5123 DEHONDT Thierry 00:29:50 V1M 2 00:01:55 00:01:55 10,860 05:31
7 5056 CAZIN CAZIN Hervé Victor 00:30:09 DUM 2 00:02:14 00:00:26 0 10,746 05:35
8 5049 BECLIN christopher 00:30:19 SEM 1 00:02:24 00:00:00 10,687 05:37
9 5010 BINET MAGRY Marion Jonathan 00:30:31 DUX 2 00:02:36 00:01:16 0 10,617 05:39
10 5138 WINOCQ BAROUX Marie Samuel 00:31:36 DUX 3 00:03:41 00:02:21 0 10,253 05:51
11 5043 MURRAY jona 00:32:00 V1M 3 00:04:05 00:04:05 10,125 05:56
12 5078 LENGLART LENGLART Sylvie Noa 00:33:31 DUX 4 00:05:36 00:04:16 0 9,667 06:12
13 5142 DELATTRE GREGORY 00:33:31 SEM 2 00:05:36 00:03:12 9,667 06:12
14 5147 DUCROCQ FREDERIC 00:33:58 SEM 3 00:06:03 00:03:39 - 9,539 06:17
15 5034 LONGUET LONGUET caroline edith 00:34:02 DUF 2 00:06:07 00:05:23 STADE LONGUENESSOIS 9,520 06:18
16 5097 LECOLLEY BOYER benoit adrien 00:34:07 DUM 3 00:06:12 00:04:24 0 9,497 06:19
17 5069 MARGUET SCOTT Louis Charlotte 00:34:10 DUX 5 00:06:15 00:04:55 ACA 9,483 06:20
18 5044 LEBRIEZ dominique 00:34:14 V1M 4 00:06:19 00:06:19 9,464 06:20
19 5042 FAUVERGUE laetitia 00:34:36 V1F 1 00:06:41 00:00:00 9,364 06:24
20 5126 POUBLANC Alix 00:34:56 JUF 1 00:07:01 00:00:00 - 9,275 06:28
21 5088 LE PERU Steeven 00:34:57 SEM 4 00:07:02 00:04:38 9,270 06:28
22 5085 MENUGE Guillaume 00:34:59 SEM 5 00:07:04 00:04:40 9,262 06:29
23 5124 POUBLANC DELGRANGE flavie JADE 00:35:00 DUF 3 00:07:05 00:06:21 0 9,257 06:29
24 10013 EHRLICH Olivier 00:35:05 V2M 1 00:07:10 00:00:00 9,235 06:30
25 5087 DOLO Lionel 00:35:06 SEM 6 00:07:11 00:04:47 9,231 06:30
26 5089 BOUREE Simon 00:35:06 SEM 7 00:07:11 00:04:47 9,231 06:30
27 5086 MENUGE Lionel 00:35:07 SEM 8 00:07:12 00:04:48 9,226 06:30
28 5014 EVRARD EVRARD SEBASTIEN AURELIE 00:35:21 DUX 6 00:07:26 00:06:06 SL 9,165 06:33
29 5140 BODELLE BOULIER Gwendoline Alexandre 00:35:39 DUX 7 00:07:44 00:06:24 0 9,088 06:36
30 5104 OURDOUILLIE OURDOUILLIE Alexandre Lucas 00:35:46 DUM 4 00:07:51 00:06:03 0 9,059 06:37
31 5102 BEELE CNOCKAERT Erwan Benoit 00:35:46 DUM 5 00:07:51 00:06:03 0 9,059 06:37
32 5074 MEURISSE RENAUT Marion Maxime 00:35:56 DUX 8 00:08:01 00:06:41 0 9,017 06:39
33 5099 SOURDEVAL Justine 00:36:12 SEF 1 00:08:17 00:00:00 8,950 06:42
34 5108 OURDOUILLIE Apolline 00:36:16 MIF 1 00:08:21 00:00:00 8,934 06:43
35 5028 CAZIN CAZIN Philippe Solène 00:36:17 DUX 9 00:08:22 00:07:02 0 8,930 06:43
36 5117 DILLY THOMAS Pauline Guy 00:36:31 DUX 10 00:08:36 00:07:16 0 8,873 06:46
37 5038 DEBUICHE DEBUICHE anne jean-michel 00:36:34 DUX 11 00:08:39 00:07:19 0 8,861 06:46
38 5083 QUENTON QUENTON Anita Carlo 00:36:43 DUX 12 00:08:48 00:07:28 0 8,824 06:48
39 5080 CORDONNIER DERETZ pascal philippe 00:37:13 DUM 6 00:09:18 00:07:30 0 8,706 06:54
40 5032 RYS LEGRAND Antoine Nina 00:37:19 DUX 13 00:09:24 00:08:04 0 8,682 06:55
41 5006 PECQUEUX PECQUEUX Laurent Sandrine 00:37:21 DUX 14 00:09:26 00:08:06 0 8,675 06:55
42 5090 DALLA VIA Marie 00:37:40 SEF 2 00:09:45 00:01:28 8,602 06:59
43 5100 ARROYO ARROYO delphine François 00:37:50 DUX 15 00:09:55 00:08:35 0 8,564 07:00
44 5053 DOYER LAVOGIEZ Mathilde Vincent 00:38:06 DUX 16 00:10:11 00:08:51 0 8,504 07:03
45 5145 THIEU DUBRULLE LESLIE - STEVEN 00:38:06 DUX 17 00:10:11 00:08:51 - 8,504 07:03
46 5004 VERLEY VERLEY Emmanuel Julie 00:38:11 DUX 18 00:10:16 00:08:56 0 8,485 07:04
47 5093 CHARLEMAGNE CHARLEMAGNE Aurore sebastien 00:38:19 DUX 19 00:10:24 00:09:04 0 8,456 07:06
48 5041 VANDEWAETER Estelle 00:38:33 V1F 2 00:10:38 00:03:57 8,405 07:08
49 5030 DEVOS GREBEAUX Florian Julie 00:38:42 DUX 20 00:10:47 00:09:27 0 8,372 07:10
50 5148 BOUDOUX MANTEL EMELINE AYMERIC 00:38:47 DUX 21 00:10:52 00:09:32 - 8,354 07:11
51 5022 INGELAERE INGELAERE Arnaud Céline 00:38:48 DUX 22 00:10:53 00:09:33 0 8,351 07:11
52 5058 SCHOONHEERE SCHOONHEERE Caroline Christophe 00:38:49 DUX 23 00:10:54 00:09:34 0 8,347 07:11
53 5050 LAURENCE LAURENCE Michaël Florine 00:38:55 DUX 24 00:11:00 00:09:40 0 8,325 07:12
54 5136 GERVAIS HEDDEBAUX CELINE VALERIANE 00:38:56 DUF 4 00:11:01 00:10:17 BLANC NEZ TRIATHLON 8,322 07:13
55 5040 CHAVAIN Elisabeth 00:39:15 V1F 3 00:11:20 00:04:39 8,255 07:16
56 5143 LECOCQ LECOCQ LOUISE CYRIL 00:39:18 DUX 25 00:11:23 00:10:03 8,244 07:17
57 5048 MEERSSEMAN Céline 00:39:23 V1F 4 00:11:28 00:04:47 8,227 07:18
58 5046 DELATTRE TARTARE anne sophie Cindy 00:39:27 DUF 5 00:11:32 00:10:48 Courir dans le lumbrois 8,213 07:18
59 5115 DECOFOUR MASSON Caroline Valérie 00:39:43 DUF 6 00:11:48 00:11:04 0 8,158 07:21
60 5020 DELVAR DELVAR Hélène Thomas 00:39:46 DUX 26 00:11:51 00:10:31 0 8,148 07:22
61 5076 BEUVRIE BEUVRIE Eric Laetitia 00:39:50 DUX 27 00:11:55 00:10:35 0 8,134 07:23
62 5036 VANTORRE VANTORRE Julien Magali 00:39:51 DUX 28 00:11:56 00:10:36 0 8,130 07:23
63 5026 VANDEN-CASTEELE VANDEN-CASTEELE ludivine sebastien 00:39:55 DUX 29 00:12:00 00:10:40 0 8,117 07:24
64 5055 BARBET Stephanie 00:40:05 V1F 5 00:12:10 00:05:29 8,083 07:25
65 5060 TROUILLE MEURISSE gaetan MARIE 00:40:17 DUX 30 00:12:22 00:11:02 0 8,043 07:28
66 5024 PLARD CARBONNIER Maxime Justine 00:40:36 DUX 31 00:12:41 00:11:21 0 7,980 07:31
67 10126 TANCHON Denis 00:41:15 SEM 9 00:13:20 00:10:56 7,855 07:38
68 10127 TANCHON Maité 00:41:15 SEF 3 00:13:20 00:05:03 7,855 07:38
69 5064 FLAHAUT FLAHAUT cedric MATHILDE 00:42:12 DUX 32 00:14:17 00:12:57 0 7,678 07:49
70 5106 RAWSKI ALLARD Marilyne Séverine 00:42:12 DUF 7 00:14:17 00:13:33 0 7,678 07:49
71 5111 BRIETZ BRIETZ ludivine gerald 00:43:02 DUX 33 00:15:07 00:13:47 0 7,529 07:58
72 5113 MALFOY MASSEMIN Jessica Sandy 00:43:20 DUF 8 00:15:25 00:14:41 0 7,477 08:01
73 5130 DRUJENT DRUJENT Virginie Cyrille 00:45:05 DUX 34 00:17:10 00:15:50 0 7,187 08:21
74 5052 EVRARD Annick 00:46:21 V1F 6 00:18:26 00:11:45 courir dans le lumbrois 6,990 08:35
75 5082 HOIN lise 00:46:21 SEF 4 00:18:26 00:10:09 6,990 08:35
76 5132 RENAUX MANIER Adeline JEREMY 00:46:44 DUX 35 00:18:49 00:17:29 0 6,933 08:39
77 5128 VALERY Sara 00:46:45 V1F 7 00:18:50 00:12:09 6,930 08:39
78 5095 MULO LUYSSAERT Anne-Laure Aurélie 00:46:50 DUF 9 00:18:55 00:18:11 0 6,918 08:40
79 5091 DEQUIDT BOULANGER Aurélie Antony 00:47:54 DUX 36 00:19:59 00:18:39 0 6,764 08:52
80 5073 BOUCHER Constance 00:48:39 ESF 1 00:20:44 00:00:00 6,660 09:01
81 5072 BOUCHER Severine 00:48:44 V1F 8 00:20:49 00:14:08 6,648 09:01
82 5071 LOISEAU Justine 00:48:45 SEF 5 00:20:50 00:12:33 6,646 09:02
83 5121 SAUVAGE DETIVAUD Julien Emilie 00:49:16 DUX 37 00:21:21 00:20:01 Blanc Nez Triathlon 6,576 09:07
84 5119 COURCHELLE COURCHELLE Aurelie Julien 00:54:46 DUX 38 00:26:51 00:25:31 0 5,916 10:09
85 5062 LUCCHINI PATOU Thomas Tiphaine 00:55:51 DUX 39 00:27:56 00:26:36 0 5,801 10:21
86 5109 GILSON GILSON Christophe Stéphanie 00:55:51 DUX 40 00:27:56 00:26:36 0 5,801 10:21